Terminal Aerodrome Forecast
Issued by NWS Cleveland, OH

Home | Current Version | Previous Version | Text Only | Print | Product List | Glossary Off
Versions: 1 2 3 4 5 6 7 8 9 10 11 12 13 14 15 16 17 18 19 20 21 22 23 24 25

000
FTUS41 KCLE 162000 AAA
TAFCLE
TAF AMD
KCLE 162043Z 1621/1724 25014G22KT 6SM -RA BR OVC014
     FM170000 25012G22KT 6SM BR VCSH OVC012
      TEMPO 1700/1702 4SM BR OVC008
     FM170200 25012G22KT 6SM BR OVC008
     FM170700 25010G22KT P6SM OVC012
     FM171500 25014G25KT P6SM BKN015 OVC030=

USA.gov is the U.S. government's official web portal to all federal, state and local government web resources and services.